Time;durP1;ratioP1;P1;durP2;ratioP2;P2;SDS_P1;SDS_P2;PMS_P1;PMS_P2;Temp;Humidity;BMP_temperature;BMP_pressure;BME280_temperature;BME280_humidity;BME280_pressure;Samples;Min_cycle;Max_cycle;Signal;HPM_P1;HPM_P2
2020/12/08 00:02:18;;;;;;;;;;;6.60;79.90;;;;;;4972040;28;19926;-43
2020/12/08 00:04:45;;;;;;;;;;;6.60;80.10;;;;;;4976572;28;20007;-44
2020/12/08 00:07:13;;;;;;;;;;;6.60;80.20;;;;;;4967103;28;19929;-44
2020/12/08 00:09:41;;;;;;;;;;;6.60;80.20;;;;;;4967145;28;19925;-44
2020/12/08 00:12:08;;;;;;;;;;;6.60;80.20;;;;;;4975345;28;19925;-43
2020/12/08 00:14:36;;;;;;;;;;;6.60;80.30;;;;;;4961239;28;19972;-44
2020/12/08 00:17:04;;;;;;;;;;;6.60;80.20;;;;;;4971307;28;20285;-44
2020/12/08 00:19:31;;;;;;;;;;;6.60;80.10;;;;;;4959137;28;19934;-43
2020/12/08 00:21:59;;;;;;;;;;;6.50;80.10;;;;;;4972577;28;20024;-44
2020/12/08 00:24:29;;;;;;;;;;;6.60;80.00;;;;;;4973834;28;20441;-42
2020/12/08 00:26:56;;;;;;;;;;;6.60;79.80;;;;;;4969868;28;20398;-43
2020/12/08 00:29:23;;;;;;;;;;;6.50;79.70;;;;;;4966979;28;19948;-43
2020/12/08 00:31:52;;;;;;;;;;;6.50;79.80;;;;;;4961753;28;19932;-43
2020/12/08 00:34:20;;;;;;;;;;;6.50;79.80;;;;;;4965614;28;19933;-43
2020/12/08 00:36:49;;;;;;;;;;;6.50;79.90;;;;;;4968503;28;20010;-44
2020/12/08 00:39:16;;;;;;;;;;;6.40;79.90;;;;;;4970875;28;19937;-43
2020/12/08 00:41:45;;;;;;;;;;;6.40;79.70;;;;;;4967361;28;20619;-44
2020/12/08 00:44:13;;;;;;;;;;;6.40;79.80;;;;;;4961463;28;20051;-44
2020/12/08 00:46:41;;;;;;;;;;;6.40;79.60;;;;;;4964916;28;19979;-44
2020/12/08 00:49:10;;;;;;;;;;;6.40;79.50;;;;;;4959189;28;19937;-44
2020/12/08 00:51:37;;;;;;;;;;;6.40;79.10;;;;;;4967501;28;19968;-45
2020/12/08 00:54:05;;;;;;;;;;;6.40;78.90;;;;;;4955978;28;19932;-42
2020/12/08 00:56:33;;;;;;;;;;;6.30;78.60;;;;;;4961563;28;19953;-43
2020/12/08 00:59:02;;;;;;;;;;;6.30;78.70;;;;;;4953949;28;19989;-44
2020/12/08 01:01:29;;;;;;;;;;;6.30;78.70;;;;;;4959818;28;19935;-45
2020/12/08 01:03:56;;;;;;;;;;;6.20;78.30;;;;;;4965057;28;20003;-45
2020/12/08 01:06:24;;;;;;;;;;;6.20;78.20;;;;;;4967539;28;20024;-45
2020/12/08 01:08:51;;;;;;;;;;;6.20;78.00;;;;;;4959018;28;19930;-44
2020/12/08 01:11:19;;;;;;;;;;;6.20;77.90;;;;;;4964299;28;20349;-45
2020/12/08 01:13:48;;;;;;;;;;;6.20;77.90;;;;;;4956799;28;19929;-44
2020/12/08 01:16:15;;;;;;;;;;;6.20;77.80;;;;;;4955046;28;19941;-45
2020/12/08 01:18:43;;;;;;;;;;;6.10;78.00;;;;;;4964494;28;19936;-44
2020/12/08 01:21:14;;;;;;;;;;;6.10;77.90;;;;;;4960442;28;19973;-45
2020/12/08 01:23:43;;;;;;;;;;;6.10;77.70;;;;;;4958916;28;20017;-45
2020/12/08 01:26:11;;;;;;;;;;;6.10;77.60;;;;;;4962007;28;21174;-46
2020/12/08 01:28:39;;;;;;;;;;;6.10;77.50;;;;;;4964391;28;19936;-45
2020/12/08 01:31:10;;;;;;;;;;;6.10;77.40;;;;;;4961341;28;20411;-44
2020/12/08 01:33:37;;;;;;;;;;;6.10;77.30;;;;;;4967011;28;19929;-45
2020/12/08 01:36:04;;;;;;;;;;;6.00;77.30;;;;;;4961532;28;20020;-46
2020/12/08 01:38:35;;;;;;;;;;;6.00;77.50;;;;;;4961658;28;20926;-44
2020/12/08 01:41:04;;;;;;;;;;;6.00;77.50;;;;;;4970454;28;19926;-46
2020/12/08 01:43:32;;;;;;;;;;;6.00;77.50;;;;;;4963304;28;19980;-44
2020/12/08 01:45:59;;;;;;;;;;;6.00;77.50;;;;;;4957148;28;20298;-43
2020/12/08 01:48:27;;;;;;;;;;;6.00;77.40;;;;;;4964926;28;20442;-44
2020/12/08 01:50:54;;;;;;;;;;;6.00;77.40;;;;;;4963098;28;19936;-44
2020/12/08 01:53:21;;;;;;;;;;;6.00;77.40;;;;;;4964075;28;20394;-44
2020/12/08 01:55:49;;;;;;;;;;;5.90;77.00;;;;;;4968606;28;19976;-44
2020/12/08 01:58:23;;;;;;;;;;;5.90;76.90;;;;;;4958989;28;19932;-43
2020/12/08 02:00:51;;;;;;;;;;;5.80;76.90;;;;;;4961494;28;19942;-44
2020/12/08 02:03:18;;;;;;;;;;;5.90;76.90;;;;;;4961693;28;19926;-43
2020/12/08 02:05:46;;;;;;;;;;;5.90;76.90;;;;;;4960607;28;19929;-43
2020/12/08 02:08:13;;;;;;;;;;;5.80;77.00;;;;;;4959803;28;19977;-44
2020/12/08 02:10:41;;;;;;;;;;;5.80;77.10;;;;;;4957630;28;19933;-44
2020/12/08 02:13:10;;;;;;;;;;;5.80;77.10;;;;;;4964849;28;19925;-44
2020/12/08 02:15:38;;;;;;;;;;;5.80;77.00;;;;;;4965510;28;19930;-44
2020/12/08 02:18:06;;;;;;;;;;;5.80;76.90;;;;;;4944652;28;19933;-44
2020/12/08 02:20:33;;;;;;;;;;;5.80;77.10;;;;;;4948210;28;19949;-44
2020/12/08 02:23:03;;;;;;;;;;;5.80;76.80;;;;;;4955769;28;19980;-44
2020/12/08 02:25:31;;;;;;;;;;;5.80;76.70;;;;;;4959455;28;20417;-44
2020/12/08 02:27:58;;;;;;;;;;;5.70;77.00;;;;;;4949256;28;20485;-43
2020/12/08 02:30:26;;;;;;;;;;;5.70;76.80;;;;;;4941213;28;19936;-44
2020/12/08 02:32:55;;;;;;;;;;;5.70;76.80;;;;;;4949136;28;20392;-43
2020/12/08 02:35:22;;;;;;;;;;;5.70;77.30;;;;;;4959116;28;19980;-44
2020/12/08 02:37:49;;;;;;;;;;;5.70;77.20;;;;;;4961216;28;19930;-44
2020/12/08 02:40:17;;;;;;;;;;;5.70;77.20;;;;;;4945507;28;20345;-44
2020/12/08 02:42:44;;;;;;;;;;;5.70;77.20;;;;;;4953396;28;19985;-43
2020/12/08 02:45:13;;;;;;;;;;;5.60;77.30;;;;;;4957100;28;19930;-43
2020/12/08 02:47:40;;;;;;;;;;;5.60;77.40;;;;;;4961374;28;20041;-43
2020/12/08 02:50:08;;;;;;;;;;;5.60;77.50;;;;;;4963249;28;20282;-43
2020/12/08 02:52:35;;;;;;;;;;;5.60;77.50;;;;;;4964455;28;19932;-43
2020/12/08 02:55:03;;;;;;;;;;;5.60;77.60;;;;;;4957511;28;19961;-43
2020/12/08 02:57:32;;;;;;;;;;;5.60;77.50;;;;;;4969352;28;20374;-46
2020/12/08 02:59:59;;;;;;;;;;;5.60;77.50;;;;;;4967823;28;19933;-45
2020/12/08 03:02:26;;;;;;;;;;;5.60;77.70;;;;;;4961832;28;20402;-46
2020/12/08 03:04:54;;;;;;;;;;;5.60;77.60;;;;;;4955056;28;19930;-45
2020/12/08 03:07:21;;;;;;;;;;;5.60;77.50;;;;;;4957083;28;19932;-44
2020/12/08 03:09:48;;;;;;;;;;;5.60;77.20;;;;;;4956031;28;19932;-45
2020/12/08 03:12:15;;;;;;;;;;;5.60;77.20;;;;;;4957278;28;19925;-46
2020/12/08 03:14:48;;;;;;;;;;;5.60;77.40;;;;;;4939936;28;19937;-46
2020/12/08 03:17:15;;;;;;;;;;;5.60;77.40;;;;;;4953410;28;19979;-46
2020/12/08 03:19:43;;;;;;;;;;;5.50;77.50;;;;;;4963346;28;19926;-46
2020/12/08 03:22:12;;;;;;;;;;;5.50;77.30;;;;;;4943072;28;19926;-46
2020/12/08 03:24:40;;;;;;;;;;;5.50;77.30;;;;;;4963679;28;19930;-45
2020/12/08 03:27:07;;;;;;;;;;;5.40;77.30;;;;;;4960042;28;19934;-46
2020/12/08 03:29:37;;;;;;;;;;;5.40;77.20;;;;;;4963749;28;19929;-45
2020/12/08 03:32:04;;;;;;;;;;;5.40;77.20;;;;;;4957519;28;19980;-45
2020/12/08 03:34:31;;;;;;;;;;;5.40;77.40;;;;;;4968394;28;20281;-44
2020/12/08 03:36:59;;;;;;;;;;;5.30;77.60;;;;;;4962540;28;19929;-45
2020/12/08 03:39:27;;;;;;;;;;;5.30;77.60;;;;;;4955250;28;20092;-46
2020/12/08 03:41:58;;;;;;;;;;;5.30;77.70;;;;;;4957338;28;19981;-44
2020/12/08 03:44:28;;;;;;;;;;;5.30;77.80;;;;;;4955567;28;19945;-46
2020/12/08 03:46:56;;;;;;;;;;;5.40;77.60;;;;;;4968367;28;20301;-44
2020/12/08 03:49:26;;;;;;;;;;;5.40;77.50;;;;;;4973499;28;19941;-46
2020/12/08 03:51:55;;;;;;;;;;;5.40;77.50;;;;;;4961698;28;19930;-46
2020/12/08 03:54:22;;;;;;;;;;;5.40;77.40;;;;;;4958478;28;20016;-46
2020/12/08 03:56:50;;;;;;;;;;;5.40;77.20;;;;;;4957889;28;19933;-45
2020/12/08 03:59:17;;;;;;;;;;;5.30;77.20;;;;;;4965369;28;20015;-46
2020/12/08 04:01:45;;;;;;;;;;;5.30;77.20;;;;;;4974592;28;19933;-48
2020/12/08 04:04:13;;;;;;;;;;;5.30;77.10;;;;;;4968870;28;19938;-45
2020/12/08 04:06:40;;;;;;;;;;;5.30;77.20;;;;;;4965365;28;20028;-44
2020/12/08 04:09:08;;;;;;;;;;;5.30;77.10;;;;;;4963253;28;19929;-43
2020/12/08 04:11:37;;;;;;;;;;;5.40;76.90;;;;;;4965323;28;19934;-44
2020/12/08 04:14:06;;;;;;;;;;;5.30;76.80;;;;;;4962859;28;20374;-44
2020/12/08 04:16:34;;;;;;;;;;;5.30;76.70;;;;;;4957549;28;19925;-46
2020/12/08 04:19:01;;;;;;;;;;;5.30;76.70;;;;;;4959054;28;19929;-45
2020/12/08 04:21:29;;;;;;;;;;;5.30;76.70;;;;;;4965286;28;20561;-42
2020/12/08 04:24:00;;;;;;;;;;;5.30;76.90;;;;;;4957688;28;20271;-46
2020/12/08 04:26:31;;;;;;;;;;;5.30;76.90;;;;;;4960059;28;20392;-44
2020/12/08 04:28:59;;;;;;;;;;;5.20;77.00;;;;;;4965467;28;20473;-46
2020/12/08 04:31:29;;;;;;;;;;;5.20;77.20;;;;;;4970193;28;19925;-45
2020/12/08 04:33:58;;;;;;;;;;;5.20;77.10;;;;;;4960376;28;19930;-43
2020/12/08 04:36:26;;;;;;;;;;;5.20;77.30;;;;;;4967561;28;19930;-43
2020/12/08 04:38:55;;;;;;;;;;;5.20;77.20;;;;;;4967720;28;20326;-46
2020/12/08 04:41:23;;;;;;;;;;;5.20;77.20;;;;;;4959676;28;20429;-45
2020/12/08 04:43:50;;;;;;;;;;;5.20;77.40;;;;;;4962235;28;19936;-47
2020/12/08 04:46:19;;;;;;;;;;;5.20;77.60;;;;;;4973049;28;19926;-47
2020/12/08 04:48:46;;;;;;;;;;;5.20;77.70;;;;;;4956886;28;19929;-44
2020/12/08 04:51:14;;;;;;;;;;;5.20;77.70;;;;;;4968783;28;19938;-44
2020/12/08 04:53:42;;;;;;;;;;;5.20;77.80;;;;;;4961669;28;19933;-47
2020/12/08 04:56:09;;;;;;;;;;;5.20;77.90;;;;;;4962350;28;19941;-47
2020/12/08 04:58:37;;;;;;;;;;;5.20;78.00;;;;;;4955773;28;20008;-43
2020/12/08 05:01:04;;;;;;;;;;;5.20;78.00;;;;;;4962914;28;19937;-44
2020/12/08 05:03:32;;;;;;;;;;;5.20;77.90;;;;;;4958927;28;20027;-43
2020/12/08 05:06:00;;;;;;;;;;;5.20;78.00;;;;;;4961942;28;20309;-44
2020/12/08 05:08:27;;;;;;;;;;;5.20;77.90;;;;;;4958032;28;19933;-42
2020/12/08 05:10:54;;;;;;;;;;;5.20;78.00;;;;;;4960725;28;20011;-43
2020/12/08 05:13:25;;;;;;;;;;;5.20;77.90;;;;;;4942416;28;19925;-46
2020/12/08 05:16:06;;;;;;;;;;;5.20;78.10;;;;;;4960461;28;20285;-42
2020/12/08 05:18:36;;;;;;;;;;;5.20;78.10;;;;;;4960708;28;19940;-47
2020/12/08 05:21:07;;;;;;;;;;;5.20;78.10;;;;;;4969693;28;19934;-45
2020/12/08 05:23:43;;;;;;;;;;;5.20;78.20;;;;;;4956977;28;19932;-44
2020/12/08 05:26:12;;;;;;;;;;;5.20;78.20;;;;;;4961280;28;20402;-47
2020/12/08 05:28:40;;;;;;;;;;;5.20;78.10;;;;;;4966592;28;19933;-47
2020/12/08 05:31:08;;;;;;;;;;;5.20;78.20;;;;;;4962980;28;19929;-43
2020/12/08 05:33:37;;;;;;;;;;;5.20;78.00;;;;;;4957791;28;20004;-44
2020/12/08 05:36:06;;;;;;;;;;;5.20;78.20;;;;;;4955530;28;20579;-43
2020/12/08 05:38:40;;;;;;;;;;;5.20;78.20;;;;;;4967993;28;19965;-43
2020/12/08 05:41:07;;;;;;;;;;;5.20;78.40;;;;;;4968497;28;20267;-43
2020/12/08 05:43:39;;;;;;;;;;;5.20;78.20;;;;;;4965061;28;19932;-44
2020/12/08 05:46:07;;;;;;;;;;;5.20;78.10;;;;;;4957857;28;20301;-44
2020/12/08 05:48:35;;;;;;;;;;;5.10;78.20;;;;;;4957381;28;20267;-44
2020/12/08 05:51:06;;;;;;;;;;;5.10;78.20;;;;;;4964676;28;20504;-44
2020/12/08 05:53:34;;;;;;;;;;;5.10;78.00;;;;;;4971422;28;20465;-43
2020/12/08 05:56:02;;;;;;;;;;;5.20;78.00;;;;;;4970525;28;19926;-44
2020/12/08 05:58:33;;;;;;;;;;;5.20;78.00;;;;;;4960974;28;19939;-44
2020/12/08 06:01:01;;;;;;;;;;;5.20;78.00;;;;;;4961970;28;20442;-43
2020/12/08 06:03:31;;;;;;;;;;;5.20;77.90;;;;;;4970857;28;20614;-44
2020/12/08 06:06:06;;;;;;;;;;;5.20;77.90;;;;;;4975683;28;19940;-44
2020/12/08 06:08:42;;;;;;;;;;;5.20;77.80;;;;;;4968945;28;20449;-43
2020/12/08 06:11:11;;;;;;;;;;;5.20;77.80;;;;;;4966658;28;19929;-43
2020/12/08 06:13:48;;;;;;;;;;;5.20;77.90;;;;;;4963869;28;20011;-47
2020/12/08 06:16:20;;;;;;;;;;;5.20;78.00;;;;;;4964347;28;19937;-43
2020/12/08 06:18:47;;;;;;;;;;;5.20;78.00;;;;;;4966371;28;20303;-46
2020/12/08 06:21:26;;;;;;;;;;;5.20;77.80;;;;;;4955412;28;19926;-46
2020/12/08 06:23:53;;;;;;;;;;;5.20;77.90;;;;;;4969746;28;19933;-46
2020/12/08 06:26:22;;;;;;;;;;;5.20;77.80;;;;;;4977496;28;20296;-43
2020/12/08 06:28:52;;;;;;;;;;;5.20;77.70;;;;;;4967127;28;19995;-43
2020/12/08 06:31:21;;;;;;;;;;;5.20;77.90;;;;;;4971123;28;20397;-43
2020/12/08 06:33:52;;;;;;;;;;;5.20;78.00;;;;;;4965088;28;19930;-43
2020/12/08 06:36:21;;;;;;;;;;;5.20;77.90;;;;;;4972579;28;19925;-43
2020/12/08 06:38:59;;;;;;;;;;;5.20;78.00;;;;;;4972823;28;20015;-43
2020/12/08 06:41:39;;;;;;;;;;;5.20;78.00;;;;;;4965827;28;20390;-43
2020/12/08 06:44:12;;;;;;;;;;;5.30;77.80;;;;;;4971713;28;19933;-44
2020/12/08 06:46:50;;;;;;;;;;;5.30;77.80;;;;;;4962169;28;19964;-44
2020/12/08 06:49:21;;;;;;;;;;;5.30;77.70;;;;;;4967368;28;19930;-42
2020/12/08 06:51:56;;;;;;;;;;;5.20;77.70;;;;;;4964229;28;19926;-43
2020/12/08 06:54:24;;;;;;;;;;;5.30;77.80;;;;;;4962695;28;21569;-43
2020/12/08 06:56:59;;;;;;;;;;;5.30;77.80;;;;;;4969347;28;20027;-44
2020/12/08 06:59:28;;;;;;;;;;;5.30;77.70;;;;;;4957928;28;19940;-45
2020/12/08 07:01:57;;;;;;;;;;;5.30;77.40;;;;;;4960498;28;19956;-44
2020/12/08 07:04:28;;;;;;;;;;;5.30;77.60;;;;;;4958907;28;19926;-45
2020/12/08 07:06:59;;;;;;;;;;;5.30;77.40;;;;;;4965430;28;19930;-44
2020/12/08 07:09:33;;;;;;;;;;;5.30;77.40;;;;;;4958492;28;19981;-45
2020/12/08 07:12:03;;;;;;;;;;;5.30;77.60;;;;;;4956559;28;19992;-45
2020/12/08 07:14:36;;;;;;;;;;;5.30;77.60;;;;;;4954260;28;20826;-44
2020/12/08 07:17:04;;;;;;;;;;;5.30;77.80;;;;;;4951069;28;19929;-43
2020/12/08 07:19:31;;;;;;;;;;;5.40;77.80;;;;;;4959194;28;20089;-43
2020/12/08 07:22:00;;;;;;;;;;;5.30;77.80;;;;;;4960564;28;20306;-43
2020/12/08 07:24:30;;;;;;;;;;;5.30;78.00;;;;;;4964836;28;19996;-42
2020/12/08 07:26:58;;;;;;;;;;;5.30;78.00;;;;;;4953312;28;19931;-43
2020/12/08 07:29:26;;;;;;;;;;;5.30;78.10;;;;;;4959862;28;19932;-43
2020/12/08 07:31:53;;;;;;;;;;;5.30;78.10;;;;;;4961847;28;19936;-43
2020/12/08 07:34:23;;;;;;;;;;;5.30;78.00;;;;;;4954232;28;21659;-43
2020/12/08 07:36:51;;;;;;;;;;;5.30;78.00;;;;;;4965394;28;19934;-43
2020/12/08 07:39:19;;;;;;;;;;;5.30;78.10;;;;;;4959061;28;19930;-44
2020/12/08 07:41:47;;;;;;;;;;;5.30;78.10;;;;;;4956487;28;19930;-43
2020/12/08 07:44:19;;;;;;;;;;;5.30;78.10;;;;;;4945718;28;19941;-43
2020/12/08 07:46:52;;;;;;;;;;;5.30;78.20;;;;;;4959725;28;19930;-43
2020/12/08 07:49:20;;;;;;;;;;;5.30;78.00;;;;;;4959216;28;19929;-43
2020/12/08 07:51:50;;;;;;;;;;;5.20;78.10;;;;;;4940623;28;19925;-44
2020/12/08 07:54:18;;;;;;;;;;;5.20;77.90;;;;;;4969902;28;19935;-44
2020/12/08 07:56:46;;;;;;;;;;;5.20;78.00;;;;;;4963676;28;19933;-44
2020/12/08 07:59:14;;;;;;;;;;;5.20;78.10;;;;;;4940435;28;20280;-44
2020/12/08 08:01:42;;;;;;;;;;;5.20;78.20;;;;;;4950600;28;20012;-41
2020/12/08 08:04:10;;;;;;;;;;;5.20;78.20;;;;;;4967312;28;19937;-41
2020/12/08 08:06:37;;;;;;;;;;;5.20;78.30;;;;;;4966110;28;19940;-44
2020/12/08 08:09:07;;;;;;;;;;;5.20;78.40;;;;;;4969285;28;19981;-44
2020/12/08 08:11:35;;;;;;;;;;;5.20;78.50;;;;;;4965394;28;19966;-44
2020/12/08 08:14:06;;;;;;;;;;;5.20;78.50;;;;;;4957170;28;20392;-44
2020/12/08 08:16:34;;;;;;;;;;;5.20;78.50;;;;;;4956870;28;19980;-44
2020/12/08 08:19:02;;;;;;;;;;;5.20;78.50;;;;;;4962088;28;20021;-42
2020/12/08 08:21:29;;;;;;;;;;;5.20;78.60;;;;;;4968694;28;20016;-41
2020/12/08 08:23:59;;;;;;;;;;;5.20;78.60;;;;;;4967379;28;19979;-42
2020/12/08 08:26:27;;;;;;;;;;;5.30;78.60;;;;;;4966196;28;19925;-44
2020/12/08 08:28:54;;;;;;;;;;;5.30;78.60;;;;;;4971474;28;19933;-43
2020/12/08 08:31:21;;;;;;;;;;;5.30;78.40;;;;;;4963123;28;20084;-43
2020/12/08 08:33:49;;;;;;;;;;;5.40;78.10;;;;;;4969612;28;19930;-43
2020/12/08 08:36:16;;;;;;;;;;;5.40;78.20;;;;;;4968508;28;19933;-43
2020/12/08 08:38:43;;;;;;;;;;;5.40;78.10;;;;;;4955700;28;19983;-41
2020/12/08 08:41:11;;;;;;;;;;;5.40;78.10;;;;;;4956790;28;20296;-42
2020/12/08 08:43:39;;;;;;;;;;;5.40;78.00;;;;;;4966123;28;19976;-44
2020/12/08 08:46:08;;;;;;;;;;;5.40;78.10;;;;;;4948261;28;19929;-44
2020/12/08 08:48:36;;;;;;;;;;;5.40;77.90;;;;;;4963413;28;19933;-43
2020/12/08 08:51:06;;;;;;;;;;;5.40;77.90;;;;;;4961739;28;19937;-43
2020/12/08 08:53:35;;;;;;;;;;;5.40;78.10;;;;;;4958474;28;20373;-43
2020/12/08 08:56:06;;;;;;;;;;;5.40;78.10;;;;;;4967264;28;19926;-43
2020/12/08 08:58:33;;;;;;;;;;;5.50;78.00;;;;;;4963684;28;20425;-44
2020/12/08 09:01:01;;;;;;;;;;;5.50;78.00;;;;;;4959485;28;20510;-43
2020/12/08 09:03:31;;;;;;;;;;;5.50;78.00;;;;;;4970629;28;19937;-43
2020/12/08 09:05:58;;;;;;;;;;;5.50;78.00;;;;;;4964546;28;19933;-43
2020/12/08 09:08:25;;;;;;;;;;;5.60;78.00;;;;;;4945334;28;20393;-43
2020/12/08 09:10:54;;;;;;;;;;;5.60;78.10;;;;;;4969921;28;20428;-44
2020/12/08 09:13:24;;;;;;;;;;;5.70;78.10;;;;;;4979165;28;20394;-44
2020/12/08 09:16:13;;;;;;;;;;;5.80;78.20;;;;;;4954385;28;20007;-43
2020/12/08 09:18:40;;;;;;;;;;;5.80;78.30;;;;;;4967489;28;19926;-43
2020/12/08 09:21:07;;;;;;;;;;;5.90;77.90;;;;;;4968480;28;19936;-44
2020/12/08 09:23:35;;;;;;;;;;;5.90;77.70;;;;;;4969624;28;19930;-43
2020/12/08 09:26:02;;;;;;;;;;;6.00;77.40;;;;;;4946825;28;19936;-43
2020/12/08 09:28:30;;;;;;;;;;;6.10;77.20;;;;;;4975590;28;19936;-43
2020/12/08 09:30:57;;;;;;;;;;;6.20;76.90;;;;;;4970883;28;20408;-44
2020/12/08 09:33:27;;;;;;;;;;;6.20;76.40;;;;;;4951525;28;20378;-42
2020/12/08 09:35:55;;;;;;;;;;;6.30;76.00;;;;;;4968786;28;19932;-43
2020/12/08 09:38:23;;;;;;;;;;;6.30;75.30;;;;;;4975868;28;19930;-44
2020/12/08 09:40:50;;;;;;;;;;;6.30;75.00;;;;;;4975615;28;19930;-44
2020/12/08 09:43:28;;;;;;;;;;;6.30;74.60;;;;;;4949720;28;19929;-43
2020/12/08 09:45:56;;;;;;;;;;;6.30;74.20;;;;;;4963990;28;19976;-46
2020/12/08 09:48:23;;;;;;;;;;;6.30;73.80;;;;;;4967415;28;19929;-46
2020/12/08 09:50:51;;;;;;;;;;;6.30;73.00;;;;;;4973714;28;19926;-47
2020/12/08 09:53:18;;;;;;;;;;;6.30;72.60;;;;;;4970244;28;20393;-47
2020/12/08 09:55:48;;;;;;;;;;;6.20;72.30;;;;;;4975150;28;20023;-43
2020/12/08 09:58:15;;;;;;;;;;;6.30;72.40;;;;;;4979099;28;19983;-47
2020/12/08 10:00:42;;;;;;;;;;;6.30;72.60;;;;;;4972026;28;19929;-47
2020/12/08 10:03:09;;;;;;;;;;;6.30;72.80;;;;;;4972833;28;19980;-43
2020/12/08 10:05:36;;;;;;;;;;;6.30;72.80;;;;;;4957268;28;19936;-44
2020/12/08 10:08:04;;;;;;;;;;;6.40;73.20;;;;;;4972344;28;19940;-46
2020/12/08 10:10:31;;;;;;;;;;;6.40;72.10;;;;;;4976094;28;19977;-47
2020/12/08 10:12:58;;;;;;;;;;;6.50;71.80;;;;;;4943639;28;19930;-45
2020/12/08 10:15:25;;;;;;;;;;;6.50;72.10;;;;;;4963021;28;19930;-45
2020/12/08 10:17:55;;;;;;;;;;;6.60;72.10;;;;;;4961906;28;20305;-45
2020/12/08 10:20:22;;;;;;;;;;;6.60;72.30;;;;;;4961259;28;19941;-45
2020/12/08 10:22:51;;;;;;;;;;;6.60;71.50;;;;;;4948400;28;19926;-47
2020/12/08 10:25:19;;;;;;;;;;;6.60;71.20;;;;;;4940075;28;19937;-48
2020/12/08 10:27:46;;;;;;;;;;;6.70;70.80;;;;;;4956413;28;19930;-44
2020/12/08 10:30:15;;;;;;;;;;;6.70;70.80;;;;;;4950049;28;19925;-43
2020/12/08 10:32:42;;;;;;;;;;;6.70;70.70;;;;;;4956141;28;19933;-42
2020/12/08 10:35:10;;;;;;;;;;;6.70;70.80;;;;;;4948480;28;19930;-44
2020/12/08 10:37:36;;;;;;;;;;;6.70;70.80;;;;;;4964725;28;19944;-44
2020/12/08 10:40:07;;;;;;;;;;;6.70;71.00;;;;;;4970486;28;19954;-44
2020/12/08 10:42:35;;;;;;;;;;;6.70;71.30;;;;;;4965251;28;20293;-43
2020/12/08 10:45:03;;;;;;;;;;;6.70;71.10;;;;;;4963937;28;19926;-43
2020/12/08 10:47:31;;;;;;;;;;;6.70;71.00;;;;;;4946539;28;19926;-44
2020/12/08 10:49:58;;;;;;;;;;;6.70;70.90;;;;;;4955364;28;19933;-43
2020/12/08 10:52:38;;;;;;;;;;;6.80;71.00;;;;;;4967590;28;20068;-43
2020/12/08 10:55:05;;;;;;;;;;;6.80;70.90;;;;;;4966751;28;20386;-43
2020/12/08 10:57:33;;;;;;;;;;;6.80;70.90;;;;;;4967888;28;19926;-44
2020/12/08 11:00:00;;;;;;;;;;;6.90;70.90;;;;;;4955910;28;20297;-42
2020/12/08 11:02:27;;;;;;;;;;;6.90;70.80;;;;;;4955542;28;19933;-44
2020/12/08 11:04:54;;;;;;;;;;;6.90;70.90;;;;;;4959082;28;19933;-43
2020/12/08 11:07:21;;;;;;;;;;;6.90;70.90;;;;;;4975391;28;19926;-42
2020/12/08 11:09:47;;;;;;;;;;;6.90;70.60;;;;;;4960198;28;19925;-43
2020/12/08 11:12:14;;;;;;;;;;;6.90;69.90;;;;;;4984081;28;19984;-42
2020/12/08 11:14:41;;;;;;;;;;;6.90;70.20;;;;;;4983099;28;19937;-44
2020/12/08 11:17:08;;;;;;;;;;;6.80;70.50;;;;;;4976496;28;21800;-44
2020/12/08 11:19:36;;;;;;;;;;;6.80;70.20;;;;;;4976148;28;19936;-44
2020/12/08 11:22:06;;;;;;;;;;;6.80;70.40;;;;;;4978416;28;20017;-45
2020/12/08 11:24:41;;;;;;;;;;;6.70;70.40;;;;;;4980567;28;19934;-45
2020/12/08 11:27:14;;;;;;;;;;;6.70;70.30;;;;;;4980157;28;19929;-46
2020/12/08 11:29:41;;;;;;;;;;;6.60;70.70;;;;;;4981863;28;19937;-42
2020/12/08 11:32:09;;;;;;;;;;;6.60;70.90;;;;;;4981987;28;20105;-42
2020/12/08 11:34:37;;;;;;;;;;;6.60;71.10;;;;;;4982555;28;19926;-45
2020/12/08 11:37:05;;;;;;;;;;;6.60;71.20;;;;;;4982616;28;20153;-45
2020/12/08 11:39:32;;;;;;;;;;;6.60;71.30;;;;;;4979226;28;19934;-45
2020/12/08 11:42:00;;;;;;;;;;;6.60;71.30;;;;;;4980275;28;19930;-46
2020/12/08 11:44:30;;;;;;;;;;;6.60;71.00;;;;;;4981031;28;19934;-47
2020/12/08 11:46:57;;;;;;;;;;;6.60;71.30;;;;;;4978577;28;20053;-45
2020/12/08 11:49:24;;;;;;;;;;;6.60;71.00;;;;;;4980101;28;19937;-47
2020/12/08 11:51:51;;;;;;;;;;;6.60;71.10;;;;;;4981591;28;20378;-44
2020/12/08 11:54:18;;;;;;;;;;;6.60;71.30;;;;;;4977351;28;20397;-46
2020/12/08 11:56:47;;;;;;;;;;;6.60;71.30;;;;;;4977765;28;19930;-45
2020/12/08 11:59:14;;;;;;;;;;;6.70;71.30;;;;;;4981500;28;20021;-43
2020/12/08 12:01:41;;;;;;;;;;;6.70;70.70;;;;;;4970936;28;19934;-44
2020/12/08 12:04:08;;;;;;;;;;;6.70;70.60;;;;;;4980958;28;19929;-41
2020/12/08 12:06:35;;;;;;;;;;;6.80;70.80;;;;;;4977981;28;19926;-41
2020/12/08 12:09:02;;;;;;;;;;;6.80;70.20;;;;;;4977717;28;20106;-42
2020/12/08 12:11:30;;;;;;;;;;;6.80;70.00;;;;;;4975977;28;20361;-44
2020/12/08 12:13:59;;;;;;;;;;;6.90;70.20;;;;;;4969090;28;20543;-43
2020/12/08 12:16:26;;;;;;;;;;;6.90;70.30;;;;;;4978049;28;19941;-44
2020/12/08 12:18:53;;;;;;;;;;;6.90;70.40;;;;;;4973665;28;20271;-41
2020/12/08 12:21:20;;;;;;;;;;;6.90;70.30;;;;;;4976606;28;20020;-41
2020/12/08 12:23:47;;;;;;;;;;;6.90;70.30;;;;;;4977305;28;20370;-41
2020/12/08 12:26:19;;;;;;;;;;;6.90;70.30;;;;;;4978344;28;20407;-41
2020/12/08 12:28:46;;;;;;;;;;;6.90;70.30;;;;;;4974467;28;20020;-41
2020/12/08 12:31:13;;;;;;;;;;;7.00;70.30;;;;;;4950602;28;19932;-44
2020/12/08 12:33:41;;;;;;;;;;;7.00;70.00;;;;;;4976692;28;19979;-44
2020/12/08 12:36:08;;;;;;;;;;;7.00;70.00;;;;;;4972119;28;19937;-43
2020/12/08 12:38:35;;;;;;;;;;;7.00;70.10;;;;;;4974853;28;19976;-44
2020/12/08 12:41:03;;;;;;;;;;;7.00;70.30;;;;;;4969788;28;20370;-43
2020/12/08 12:43:32;;;;;;;;;;;7.00;70.60;;;;;;4951851;28;20382;-44
2020/12/08 12:45:59;;;;;;;;;;;7.00;70.70;;;;;;4961040;28;19926;-43
2020/12/08 12:48:27;;;;;;;;;;;7.10;70.50;;;;;;4969851;28;19926;-43
2020/12/08 12:50:54;;;;;;;;;;;7.10;70.30;;;;;;4964780;28;20085;-42
2020/12/08 12:53:20;;;;;;;;;;;7.20;70.00;;;;;;4962294;28;20393;-43
2020/12/08 12:55:48;;;;;;;;;;;7.20;70.30;;;;;;4974278;28;19933;-43
2020/12/08 12:58:16;;;;;;;;;;;7.20;70.30;;;;;;4972084;28;19984;-45
2020/12/08 13:00:43;;;;;;;;;;;7.20;70.10;;;;;;4955560;28;19952;-46
2020/12/08 13:03:23;;;;;;;;;;;7.20;70.00;;;;;;4969377;28;19933;-46
2020/12/08 13:05:50;;;;;;;;;;;7.20;70.10;;;;;;4942536;28;20252;-46
2020/12/08 13:08:17;;;;;;;;;;;7.20;70.30;;;;;;4976182;28;20476;-42
2020/12/08 13:10:44;;;;;;;;;;;7.20;70.40;;;;;;4975548;28;19956;-44
2020/12/08 13:13:11;;;;;;;;;;;7.20;70.30;;;;;;4965214;28;19929;-43
2020/12/08 13:15:40;;;;;;;;;;;7.20;70.50;;;;;;4982166;28;19929;-44
2020/12/08 13:18:07;;;;;;;;;;;7.20;70.60;;;;;;4977405;28;19930;-43
2020/12/08 13:20:34;;;;;;;;;;;7.20;70.50;;;;;;4934473;28;20353;-44
2020/12/08 13:23:05;;;;;;;;;;;7.10;70.30;;;;;;4972585;28;19940;-44
2020/12/08 13:25:32;;;;;;;;;;;7.20;70.60;;;;;;4971049;28;20385;-43
2020/12/08 13:27:59;;;;;;;;;;;7.20;70.80;;;;;;4977170;28;19976;-43
2020/12/08 13:30:26;;;;;;;;;;;7.20;70.50;;;;;;4963710;28;19930;-44
2020/12/08 13:32:54;;;;;;;;;;;7.20;70.60;;;;;;4967287;28;19936;-43
2020/12/08 13:35:21;;;;;;;;;;;7.30;70.70;;;;;;4953189;28;20008;-44
2020/12/08 13:37:48;;;;;;;;;;;7.30;70.80;;;;;;4960920;28;20297;-43
2020/12/08 13:40:16;;;;;;;;;;;7.30;70.10;;;;;;4968448;28;19944;-43
2020/12/08 13:42:45;;;;;;;;;;;7.30;69.90;;;;;;4964669;28;19926;-44
2020/12/08 13:45:13;;;;;;;;;;;7.30;70.10;;;;;;4969152;28;19926;-43
2020/12/08 13:47:40;;;;;;;;;;;7.20;70.30;;;;;;4965510;28;19929;-43
2020/12/08 13:50:07;;;;;;;;;;;7.30;70.00;;;;;;4972978;28;19936;-44
2020/12/08 13:52:35;;;;;;;;;;;7.30;69.60;;;;;;4968311;28;19965;-44
2020/12/08 13:55:02;;;;;;;;;;;7.20;69.90;;;;;;4972461;28;19940;-43
2020/12/08 13:57:30;;;;;;;;;;;7.20;69.90;;;;;;4965718;28;19935;-43
2020/12/08 13:59:57;;;;;;;;;;;7.20;70.10;;;;;;4969352;28;19989;-43
2020/12/08 14:02:25;;;;;;;;;;;7.10;70.30;;;;;;4968608;28;20023;-44
2020/12/08 14:04:53;;;;;;;;;;;7.10;70.40;;;;;;4958771;28;19932;-44
2020/12/08 14:07:20;;;;;;;;;;;7.10;70.50;;;;;;4959593;28;19932;-44
2020/12/08 14:09:48;;;;;;;;;;;7.10;70.60;;;;;;4966936;28;20435;-42
2020/12/08 14:12:16;;;;;;;;;;;7.10;70.70;;;;;;4967042;28;19933;-44
2020/12/08 14:14:43;;;;;;;;;;;7.10;70.80;;;;;;4962411;28;19992;-43
2020/12/08 14:17:10;;;;;;;;;;;7.10;70.90;;;;;;4965214;28;19926;-43
2020/12/08 14:19:38;;;;;;;;;;;7.10;71.10;;;;;;4962824;28;19930;-44
2020/12/08 14:22:08;;;;;;;;;;;7.20;71.00;;;;;;4946689;28;20048;-44
2020/12/08 14:24:38;;;;;;;;;;;7.20;70.50;;;;;;4968010;28;19929;-44
2020/12/08 14:27:05;;;;;;;;;;;7.20;70.60;;;;;;4968116;28;19926;-44
2020/12/08 14:29:33;;;;;;;;;;;7.20;70.90;;;;;;4967895;28;20515;-43
2020/12/08 14:32:01;;;;;;;;;;;7.10;71.10;;;;;;4958614;28;20379;-43
2020/12/08 14:34:29;;;;;;;;;;;7.20;71.00;;;;;;4960255;28;19953;-44
2020/12/08 14:36:56;;;;;;;;;;;7.10;71.00;;;;;;4966529;28;19925;-43
2020/12/08 14:39:23;;;;;;;;;;;7.10;71.00;;;;;;4957267;28;20267;-43